Time;durP1;ratioP1;P1;durP2;ratioP2;P2;SDS_P1;SDS_P2;PMS_P1;PMS_P2;Temp;Humidity;BMP_temperature;BMP_pressure;BME280_temperature;BME280_humidity;BME280_pressure;Samples;Min_cycle;Max_cycle;Signal;HPM_P1;HPM_P2
2022/05/12 00:00:36;;;;;;;1.27;1.17;;;;;;;;;;5047271;28;20017;-76
2022/05/12 00:03:03;;;;;;;1.00;0.93;;;;;;;;;;5042513;28;20036;-76
2022/05/12 00:05:29;;;;;;;1.48;0.77;;;;;;;;;;5034027;28;20183;-77
2022/05/12 00:07:55;;;;;;;1.23;1.08;;;;;;;;;;5041609;28;20021;-76
2022/05/12 00:10:22;;;;;;;1.55;1.02;;;;;;;;;;5030183;28;20056;-77
2022/05/12 00:12:49;;;;;;;0.95;0.93;;;;;;;;;;5042114;28;20033;-76
2022/05/12 00:15:16;;;;;;;7.05;2.65;;;;;;;;;;5032483;28;20025;-77
2022/05/12 00:17:44;;;;;;;4.45;0.98;;;;;;;;;;5042658;28;20043;-77
2022/05/12 00:20:10;;;;;;;1.67;1.58;;;;;;;;;;5048261;28;20365;-77
2022/05/12 00:22:36;;;;;;;2.05;0.90;;;;;;;;;;5047682;28;20071;-76
2022/05/12 00:25:02;;;;;;;1.10;0.90;;;;;;;;;;5040155;28;20431;-77
2022/05/12 00:27:28;;;;;;;1.25;1.15;;;;;;;;;;5040413;28;20124;-76
2022/05/12 00:29:54;;;;;;;1.27;0.82;;;;;;;;;;5045327;28;20415;-77
2022/05/12 00:32:20;;;;;;;1.60;1.13;;;;;;;;;;5039616;28;20082;-77
2022/05/12 00:34:46;;;;;;;0.65;0.65;;;;;;;;;;5040026;28;20399;-77
2022/05/12 00:37:12;;;;;;;2.20;1.08;;;;;;;;;;5038509;28;20072;-76
2022/05/12 00:39:38;;;;;;;0.45;0.45;;;;;;;;;;5045630;28;20053;-76
2022/05/12 00:42:04;;;;;;;0.77;0.77;;;;;;;;;;5041359;28;20064;-76
2022/05/12 00:44:30;;;;;;;0.77;0.77;;;;;;;;;;5039734;28;20539;-77
2022/05/12 00:46:56;;;;;;;0.63;0.60;;;;;;;;;;5047038;28;20036;-76
2022/05/12 00:49:24;;;;;;;1.33;0.95;;;;;;;;;;5040672;28;20395;-76
2022/05/12 00:51:51;;;;;;;0.63;0.55;;;;;;;;;;5048524;28;20116;-76
2022/05/12 00:54:38;;;;;;;0.95;0.80;;;;;;;;;;5047686;28;20475;-76
2022/05/12 00:57:05;;;;;;;0.63;0.60;;;;;;;;;;5051838;28;20037;-76
2022/05/12 00:59:32;;;;;;;0.82;0.82;;;;;;;;;;5049074;28;20043;-76
2022/05/12 01:02:00;;;;;;;1.10;0.95;;;;;;;;;;5044460;28;20075;-76
2022/05/12 01:04:26;;;;;;;2.50;1.13;;;;;;;;;;5051707;28;20051;-76
2022/05/12 01:06:52;;;;;;;2.33;1.48;;;;;;;;;;5034562;28;20021;-76
2022/05/12 01:09:20;;;;;;;0.70;0.70;;;;;;;;;;5046763;28;20460;-77
2022/05/12 01:11:46;;;;;;;0.88;0.88;;;;;;;;;;5044403;28;20055;-76
2022/05/12 01:14:12;;;;;;;1.10;0.70;;;;;;;;;;5044632;28;20021;-76
2022/05/12 01:16:42;;;;;;;1.13;0.60;;;;;;;;;;5045685;28;20245;-76
2022/05/12 01:19:11;;;;;;;0.70;0.60;;;;;;;;;;5035093;28;20040;-76
2022/05/12 01:21:36;;;;;;;0.70;0.70;;;;;;;;;;5046536;28;20029;-77
2022/05/12 01:24:03;;;;;;;0.82;0.68;;;;;;;;;;5048286;28;20187;-77
2022/05/12 01:26:28;;;;;;;2.03;1.23;;;;;;;;;;5047885;28;20033;-77
2022/05/12 01:28:54;;;;;;;1.77;1.67;;;;;;;;;;5051650;28;20530;-77
2022/05/12 01:31:21;;;;;;;3.50;1.95;;;;;;;;;;5049059;28;20116;-77
2022/05/12 01:33:47;;;;;;;1.58;1.20;;;;;;;;;;5052311;28;20025;-76
2022/05/12 01:36:13;;;;;;;0.47;0.47;;;;;;;;;;5043177;28;20033;-77
2022/05/12 01:38:39;;;;;;;8.65;0.75;;;;;;;;;;5048187;28;20115;-77
2022/05/12 01:41:05;;;;;;;3.65;1.45;;;;;;;;;;5051374;28;20462;-77
2022/05/12 01:43:31;;;;;;;1.55;1.45;;;;;;;;;;5035942;28;20365;-76
2022/05/12 01:45:59;;;;;;;0.98;0.68;;;;;;;;;;5050934;28;20086;-77
2022/05/12 01:48:25;;;;;;;0.35;0.35;;;;;;;;;;5051032;28;20029;-76
2022/05/12 01:50:52;;;;;;;0.73;0.73;;;;;;;;;;5051802;28;20021;-77
2022/05/12 01:53:18;;;;;;;1.05;1.00;;;;;;;;;;5051112;28;20053;-77
2022/05/12 01:55:47;;;;;;;1.67;1.15;;;;;;;;;;5051512;28;20025;-77
2022/05/12 01:58:13;;;;;;;1.95;1.40;;;;;;;;;;5046274;28;20048;-77
2022/05/12 02:00:39;;;;;;;0.47;0.47;;;;;;;;;;5043935;28;20041;-76
2022/05/12 02:03:05;;;;;;;0.82;0.75;;;;;;;;;;5050214;28;20072;-76
2022/05/12 02:05:32;;;;;;;0.35;0.30;;;;;;;;;;5050579;28;20044;-76
2022/05/12 02:07:58;;;;;;;1.17;0.65;;;;;;;;;;5044885;28;20025;-76
2022/05/12 02:10:25;;;;;;;3.03;1.08;;;;;;;;;;5049865;28;20036;-77
2022/05/12 02:12:51;;;;;;;0.73;0.70;;;;;;;;;;5043365;28;20066;-77
2022/05/12 02:15:17;;;;;;;0.77;0.60;;;;;;;;;;5050838;28;20059;-76
2022/05/12 02:17:43;;;;;;;0.52;0.30;;;;;;;;;;5048896;28;20071;-76
2022/05/12 02:20:11;;;;;;;1.08;0.65;;;;;;;;;;5049978;28;20040;-77
2022/05/12 02:22:38;;;;;;;0.77;0.60;;;;;;;;;;5049350;28;20025;-76
2022/05/12 02:25:04;;;;;;;1.15;1.10;;;;;;;;;;5050708;28;20061;-77
2022/05/12 02:27:30;;;;;;;0.82;0.75;;;;;;;;;;5049761;28;20037;-77
2022/05/12 02:29:56;;;;;;;0.28;0.28;;;;;;;;;;5048064;28;20024;-78
2022/05/12 02:32:22;;;;;;;0.50;0.50;;;;;;;;;;5050163;28;20467;-77
2022/05/12 02:34:48;;;;;;;12.25;1.25;;;;;;;;;;5051005;28;20033;-76
2022/05/12 02:37:14;;;;;;;0.57;0.57;;;;;;;;;;5045450;28;20041;-77
2022/05/12 02:39:42;;;;;;;0.77;0.77;;;;;;;;;;5049776;28;20090;-76
2022/05/12 02:42:08;;;;;;;1.10;0.80;;;;;;;;;;5034845;28;20021;-77
2022/05/12 02:44:35;;;;;;;0.85;0.85;;;;;;;;;;5032100;28;20061;-77
2022/05/12 02:47:01;;;;;;;1.30;1.20;;;;;;;;;;5050562;28;20059;-78
2022/05/12 02:49:27;;;;;;;0.50;0.50;;;;;;;;;;5049462;28;20017;-77
2022/05/12 02:51:53;;;;;;;0.40;0.40;;;;;;;;;;5049803;28;20075;-78
2022/05/12 02:54:19;;;;;;;0.38;0.38;;;;;;;;;;5050336;28;20361;-77
2022/05/12 02:56:45;;;;;;;0.45;0.45;;;;;;;;;;5047596;28;20029;-77
2022/05/12 02:59:11;;;;;;;0.70;0.70;;;;;;;;;;5049553;28;20033;-77
2022/05/12 03:01:37;;;;;;;1.10;0.57;;;;;;;;;;5042541;28;20403;-77
2022/05/12 03:04:03;;;;;;;0.40;0.40;;;;;;;;;;5049468;28;20049;-77
2022/05/12 03:06:29;;;;;;;1.00;0.47;;;;;;;;;;5048667;28;20029;-77
2022/05/12 03:08:56;;;;;;;0.75;0.75;;;;;;;;;;5045863;28;20036;-78
2022/05/12 03:11:22;;;;;;;0.70;0.30;;;;;;;;;;5048331;28;20106;-77
2022/05/12 03:13:51;;;;;;;0.73;0.65;;;;;;;;;;5047519;28;20079;-76
2022/05/12 03:16:18;;;;;;;0.60;0.60;;;;;;;;;;5039709;28;20035;-76
2022/05/12 03:18:46;;;;;;;1.17;1.02;;;;;;;;;;5048683;28;20033;-76
2022/05/12 03:21:14;;;;;;;0.60;0.60;;;;;;;;;;5031900;28;20222;-76
2022/05/12 03:23:40;;;;;;;1.20;0.90;;;;;;;;;;5048219;28;20111;-77
2022/05/12 03:26:06;;;;;;;1.17;1.08;;;;;;;;;;5044674;28;20029;-77
2022/05/12 03:28:33;;;;;;;3.33;0.88;;;;;;;;;;5040597;28;20025;-76
2022/05/12 03:30:59;;;;;;;0.60;0.60;;;;;;;;;;5049289;28;20017;-77
2022/05/12 03:33:25;;;;;;;0.55;0.55;;;;;;;;;;5048618;28;20075;-77
2022/05/12 03:35:51;;;;;;;0.85;0.40;;;;;;;;;;5046242;28;20028;-77
2022/05/12 03:38:17;;;;;;;1.17;0.95;;;;;;;;;;5042386;28;20025;-77
2022/05/12 03:40:43;;;;;;;0.50;0.50;;;;;;;;;;5032640;28;20075;-77
2022/05/12 03:43:09;;;;;;;1.88;0.65;;;;;;;;;;5041759;28;20021;-78
2022/05/12 03:45:36;;;;;;;1.40;1.10;;;;;;;;;;5044640;28;20085;-78
2022/05/12 03:48:02;;;;;;;0.68;0.68;;;;;;;;;;5048809;28;20025;-77
2022/05/12 03:50:28;;;;;;;1.38;0.95;;;;;;;;;;5048936;28;20383;-76
2022/05/12 03:52:55;;;;;;;0.40;0.40;;;;;;;;;;5048993;28;20033;-77
2022/05/12 03:55:23;;;;;;;1.23;1.10;;;;;;;;;;5039585;28;20033;-77
2022/05/12 03:57:51;;;;;;;1.05;0.77;;;;;;;;;;5046853;28;20035;-77
2022/05/12 04:00:19;;;;;;;0.47;0.47;;;;;;;;;;5039861;28;20037;-77
2022/05/12 04:02:46;;;;;;;6.70;0.90;;;;;;;;;;5041881;28;20104;-76
2022/05/12 04:05:12;;;;;;;4.05;0.88;;;;;;;;;;5048409;28;20163;-78
2022/05/12 04:07:42;;;;;;;5.05;1.00;;;;;;;;;;5047555;28;20028;-77
2022/05/12 04:10:08;;;;;;;0.90;0.57;;;;;;;;;;5048030;28;20040;-76
2022/05/12 04:12:34;;;;;;;0.77;0.52;;;;;;;;;;5048036;28;20027;-77
2022/05/12 04:15:00;;;;;;;0.40;0.25;;;;;;;;;;5037472;28;20472;-77
2022/05/12 04:17:26;;;;;;;0.57;0.50;;;;;;;;;;5040679;28;20024;-78
2022/05/12 04:19:52;;;;;;;0.93;0.93;;;;;;;;;;5045567;28;20029;-77
2022/05/12 04:22:18;;;;;;;0.75;0.60;;;;;;;;;;5044581;28;20030;-76
2022/05/12 04:24:44;;;;;;;0.20;0.20;;;;;;;;;;5044284;28;20036;-76
2022/05/12 04:27:10;;;;;;;0.50;0.45;;;;;;;;;;5048100;28;20557;-77
2022/05/12 04:29:37;;;;;;;2.35;0.90;;;;;;;;;;5045714;28;20036;-76
2022/05/12 04:32:03;;;;;;;1.10;0.98;;;;;;;;;;5047537;28;20029;-76
2022/05/12 04:37:14;;;;;;;0.40;0.30;;;;;;;;;;5045369;28;20043;-76
2022/05/12 04:39:40;;;;;;;0.43;0.40;;;;;;;;;;5047300;28;20398;-76
2022/05/12 04:42:06;;;;;;;0.65;0.50;;;;;;;;;;5041280;28;20080;-77
2022/05/12 04:44:32;;;;;;;0.20;0.20;;;;;;;;;;5043327;28;20117;-76
2022/05/12 04:46:58;;;;;;;0.98;0.93;;;;;;;;;;5047796;28;20033;-76
2022/05/12 04:49:26;;;;;;;3.30;0.90;;;;;;;;;;5040729;28;20029;-77
2022/05/12 04:51:52;;;;;;;1.80;1.70;;;;;;;;;;5041109;28;20059;-77
2022/05/12 04:54:18;;;;;;;0.77;0.65;;;;;;;;;;5046483;28;20392;-77
2022/05/12 04:56:44;;;;;;;2.97;2.60;;;;;;;;;;5044426;28;20034;-76
2022/05/12 04:59:10;;;;;;;0.20;0.20;;;;;;;;;;5047827;28;20463;-77
2022/05/12 05:01:36;;;;;;;0.75;0.60;;;;;;;;;;5046786;28;20025;-77
2022/05/12 05:04:03;;;;;;;1.45;0.60;;;;;;;;;;5041608;28;20060;-76
2022/05/12 05:06:30;;;;;;;0.15;0.15;;;;;;;;;;5046331;28;20033;-76
2022/05/12 05:08:56;;;;;;;1.98;0.75;;;;;;;;;;5041687;28;20131;-77
2022/05/12 05:11:22;;;;;;;0.60;0.60;;;;;;;;;;5044200;28;20508;-77
2022/05/12 05:13:48;;;;;;;3.22;0.75;;;;;;;;;;5044997;28;20061;-77
2022/05/12 05:16:14;;;;;;;0.57;0.57;;;;;;;;;;5046994;28;20039;-76
2022/05/12 05:18:40;;;;;;;20.35;0.63;;;;;;;;;;5045870;28;20107;-77
2022/05/12 05:21:07;;;;;;;0.75;0.65;;;;;;;;;;5033469;28;20026;-76
2022/05/12 05:23:33;;;;;;;1.20;0.60;;;;;;;;;;5047585;28;20040;-76
2022/05/12 05:25:59;;;;;;;1.00;0.88;;;;;;;;;;5044453;28;20017;-76
2022/05/12 05:28:25;;;;;;;0.22;0.22;;;;;;;;;;5046818;28;20108;-77
2022/05/12 05:30:51;;;;;;;0.32;0.32;;;;;;;;;;5044863;28;20024;-76
2022/05/12 05:33:18;;;;;;;0.30;0.30;;;;;;;;;;5041650;28;20037;-76
2022/05/12 05:35:44;;;;;;;0.47;0.47;;;;;;;;;;5042437;28;20475;-76
2022/05/12 05:38:10;;;;;;;0.45;0.40;;;;;;;;;;5051220;28;20029;-76
2022/05/12 05:40:36;;;;;;;0.60;0.60;;;;;;;;;;5044077;28;20484;-76
2022/05/12 05:43:03;;;;;;;0.30;0.30;;;;;;;;;;5034313;28;20048;-77
2022/05/12 05:45:29;;;;;;;0.10;0.10;;;;;;;;;;5036711;28;20127;-76
2022/05/12 05:47:57;;;;;;;1.30;0.80;;;;;;;;;;5046211;28;20539;-76
2022/05/12 05:50:28;;;;;;;0.22;0.20;;;;;;;;;;5045245;28;20040;-76
2022/05/12 05:55:41;;;;;;;1.23;0.63;;;;;;;;;;5049851;28;20048;-78
2022/05/12 05:58:07;;;;;;;0.95;0.65;;;;;;;;;;5049402;28;20477;-76
2022/05/12 06:00:34;;;;;;;3.22;0.70;;;;;;;;;;5049641;28;20254;-77
2022/05/12 06:03:00;;;;;;;0.35;0.35;;;;;;;;;;5042016;28;20100;-77
2022/05/12 06:05:27;;;;;;;0.20;0.20;;;;;;;;;;5040103;28;20071;-76
2022/05/12 06:07:53;;;;;;;0.20;0.20;;;;;;;;;;5048857;28;20448;-75
2022/05/12 06:10:20;;;;;;;0.10;0.10;;;;;;;;;;5044167;28;20400;-76
2022/05/12 06:12:48;;;;;;;0.00;0.00;;;;;;;;;;5044579;28;20052;-74
2022/05/12 06:15:14;;;;;;;0.30;0.30;;;;;;;;;;5046441;28;20116;-75
2022/05/12 06:17:41;;;;;;;0.10;0.10;;;;;;;;;;5049926;28;20152;-76
2022/05/12 06:20:07;;;;;;;1.45;1.13;;;;;;;;;;5047187;28;20017;-77
2022/05/12 06:22:33;;;;;;;2.50;0.43;;;;;;;;;;5044491;28;20028;-76
2022/05/12 06:25:00;;;;;;;0.25;0.20;;;;;;;;;;5046725;28;20021;-77
2022/05/12 06:27:26;;;;;;;0.47;0.10;;;;;;;;;;5044466;28;20052;-76
2022/05/12 06:29:51;;;;;;;0.38;0.38;;;;;;;;;;5048330;28;20456;-76
2022/05/12 06:32:19;;;;;;;0.05;0.05;;;;;;;;;;5048019;28;20123;-74
2022/05/12 06:34:46;;;;;;;0.00;0.00;;;;;;;;;;5048551;28;20029;-73
2022/05/12 06:37:12;;;;;;;0.00;0.00;;;;;;;;;;5045906;28;20681;-74
2022/05/12 06:39:38;;;;;;;0.52;0.52;;;;;;;;;;5047770;28;20036;-74
2022/05/12 06:42:05;;;;;;;0.32;0.32;;;;;;;;;;5048979;28;20053;-80
2022/05/12 06:44:31;;;;;;;0.22;0.20;;;;;;;;;;5049984;28;20044;-77
2022/05/12 06:46:57;;;;;;;0.20;0.20;;;;;;;;;;5048365;28;20025;-74
2022/05/12 06:49:23;;;;;;;0.10;0.10;;;;;;;;;;5049541;28;20487;-75
2022/05/12 06:51:51;;;;;;;0.05;0.05;;;;;;;;;;5048200;28;20040;-74
2022/05/12 06:54:17;;;;;;;0.13;0.13;;;;;;;;;;5046162;28;20056;-75
2022/05/12 06:56:43;;;;;;;0.20;0.20;;;;;;;;;;5046927;28;20090;-76
2022/05/12 06:59:09;;;;;;;0.20;0.20;;;;;;;;;;5045155;28;20400;-76
2022/05/12 07:01:35;;;;;;;0.35;0.35;;;;;;;;;;5048727;28;20039;-75
2022/05/12 07:04:01;;;;;;;0.30;0.30;;;;;;;;;;5048974;28;20483;-74
2022/05/12 07:06:28;;;;;;;0.85;0.55;;;;;;;;;;5048915;28;20475;-75
2022/05/12 07:08:54;;;;;;;0.38;0.10;;;;;;;;;;5036228;28;20041;-78
2022/05/12 07:11:20;;;;;;;0.65;0.45;;;;;;;;;;5041273;28;20037;-80
2022/05/12 07:13:46;;;;;;;0.20;0.20;;;;;;;;;;5042244;28;20071;-78
2022/05/12 07:16:48;;;;;;;0.40;0.35;;;;;;;;;;5048814;28;20025;-81
2022/05/12 07:19:15;;;;;;;0.10;0.10;;;;;;;;;;4986450;28;20054;-77
2022/05/12 07:27:14;;;;;;;0.20;0.20;;;;;;;;;;5048825;28;20067;-80
2022/05/12 07:29:40;;;;;;;0.20;0.20;;;;;;;;;;5047834;28;20121;-81
2022/05/12 07:32:07;;;;;;;0.00;0.00;;;;;;;;;;5047202;28;20598;-81
2022/05/12 07:34:33;;;;;;;0.00;0.00;;;;;;;;;;5046404;28;20086;-79
2022/05/12 07:36:59;;;;;;;0.00;0.00;;;;;;;;;;5044853;28;20029;-81
2022/05/12 07:39:28;;;;;;;0.10;0.10;;;;;;;;;;5043508;28;20491;-77
2022/05/12 07:41:55;;;;;;;1.55;0.45;;;;;;;;;;5044140;28;21861;-77
2022/05/12 07:44:22;;;;;;;0.60;0.30;;;;;;;;;;5044464;28;20124;-77
2022/05/12 07:46:49;;;;;;;0.00;0.00;;;;;;;;;;5047872;28;20032;-77
2022/05/12 07:49:15;;;;;;;0.03;0.00;;;;;;;;;;5035471;28;20021;-77
2022/05/12 07:51:41;;;;;;;0.00;0.00;;;;;;;;;;5045417;28;20033;-77
2022/05/12 07:54:06;;;;;;;0.10;0.10;;;;;;;;;;5047427;28;20029;-77
2022/05/12 07:56:32;;;;;;;0.00;0.00;;;;;;;;;;5046593;28;20032;-77
2022/05/12 07:59:00;;;;;;;0.00;0.00;;;;;;;;;;5038170;28;20463;-77
2022/05/12 08:01:26;;;;;;;1.75;0.90;;;;;;;;;;5046409;28;20033;-76
2022/05/12 08:03:53;;;;;;;0.30;0.30;;;;;;;;;;5030452;28;20403;-76
2022/05/12 08:06:20;;;;;;;0.00;0.00;;;;;;;;;;5033739;28;20022;-76
2022/05/12 08:08:48;;;;;;;0.05;0.05;;;;;;;;;;5030882;28;20471;-76
2022/05/12 08:11:14;;;;;;;0.00;0.00;;;;;;;;;;5040857;28;20037;-77
2022/05/12 08:13:42;;;;;;;0.00;0.00;;;;;;;;;;5028562;28;20033;-78
2022/05/12 08:16:08;;;;;;;0.08;0.08;;;;;;;;;;5028715;28;20616;-76
2022/05/12 08:18:35;;;;;;;0.08;0.08;;;;;;;;;;5028656;28;20017;-77
2022/05/12 08:21:01;;;;;;;0.10;0.10;;;;;;;;;;5044296;28;20380;-77
2022/05/12 08:23:27;;;;;;;0.00;0.00;;;;;;;;;;5032852;28;20017;-77
2022/05/12 08:25:54;;;;;;;0.20;0.15;;;;;;;;;;5026952;28;20034;-77
2022/05/12 08:28:22;;;;;;;0.00;0.00;;;;;;;;;;5028439;28;20464;-77
2022/05/12 08:30:50;;;;;;;0.28;0.28;;;;;;;;;;5038202;28;20036;-76
2022/05/12 08:33:17;;;;;;;0.20;0.10;;;;;;;;;;5039644;28;20033;-76
2022/05/12 08:35:43;;;;;;;0.10;0.10;;;;;;;;;;5037089;28;20438;-77
2022/05/12 08:38:09;;;;;;;0.00;0.00;;;;;;;;;;5042426;28;20498;-77
2022/05/12 08:40:54;;;;;;;0.00;0.00;;;;;;;;;;5041799;28;20044;-77
2022/05/12 08:43:26;;;;;;;0.20;0.20;;;;;;;;;;5041312;28;20519;-77
2022/05/12 08:45:53;;;;;;;0.00;0.00;;;;;;;;;;5047968;28;20028;-76
2022/05/12 08:48:20;;;;;;;0.20;0.10;;;;;;;;;;5048256;28;20107;-77
2022/05/12 08:50:50;;;;;;;0.20;0.10;;;;;;;;;;5037511;28;20472;-77
2022/05/12 08:53:19;;;;;;;0.10;0.10;;;;;;;;;;5034352;28;20533;-77
2022/05/12 08:55:50;;;;;;;0.15;0.15;;;;;;;;;;5044042;28;20274;-77
2022/05/12 08:58:20;;;;;;;0.22;0.22;;;;;;;;;;5033985;28;20460;-77
2022/05/12 09:00:55;;;;;;;7.88;0.95;;;;;;;;;;5034742;28;20034;-77
2022/05/12 09:03:21;;;;;;;1.30;0.40;;;;;;;;;;5028070;28;20289;-76
2022/05/12 09:06:09;;;;;;;0.00;0.00;;;;;;;;;;5028385;28;20472;-76
2022/05/12 09:08:57;;;;;;;0.30;0.30;;;;;;;;;;5027986;28;20125;-76
2022/05/12 09:11:31;;;;;;;0.20;0.20;;;;;;;;;;5044063;28;20025;-77
2022/05/12 09:13:59;;;;;;;0.00;0.00;;;;;;;;;;5047946;28;20031;-85
2022/05/12 09:16:32;;;;;;;0.13;0.13;;;;;;;;;;5040545;28;20116;-78
2022/05/12 09:18:59;;;;;;;0.57;0.20;;;;;;;;;;5048940;28;20510;-76
2022/05/12 09:21:36;;;;;;;0.10;0.10;;;;;;;;;;5049355;28;20033;-77
2022/05/12 09:24:03;;;;;;;0.03;0.03;;;;;;;;;;5046931;28;20029;-77
2022/05/12 09:26:35;;;;;;;0.30;0.30;;;;;;;;;;5033000;28;20040;-76
2022/05/12 09:29:20;;;;;;;0.20;0.20;;;;;;;;;;5039789;28;20047;-78
2022/05/12 09:31:49;;;;;;;0.30;0.30;;;;;;;;;;5047908;28;20083;-76
2022/05/12 09:34:21;;;;;;;0.10;0.10;;;;;;;;;;5047634;28;20121;-77
2022/05/12 09:36:47;;;;;;;0.00;0.00;;;;;;;;;;5051363;28;20028;-77
2022/05/12 09:39:32;;;;;;;0.10;0.10;;;;;;;;;;5049040;28;20029;-78
2022/05/12 09:41:58;;;;;;;0.10;0.10;;;;;;;;;;5051521;28;20032;-77
2022/05/12 09:44:27;;;;;;;1.10;0.17;;;;;;;;;;5048282;28;20039;-79
2022/05/12 09:47:06;;;;;;;1.52;0.55;;;;;;;;;;5050589;28;20392;-79
2022/05/12 09:49:38;;;;;;;0.00;0.00;;;;;;;;;;5049408;28;20040;-81
2022/05/12 09:52:23;;;;;;;0.20;0.20;;;;;;;;;;5043081;28;20025;-80
2022/05/12 09:54:55;;;;;;;1.05;0.75;;;;;;;;;;5047906;28;20025;-81
2022/05/12 09:57:27;;;;;;;0.20;0.20;;;;;;;;;;5031904;28;20379;-80
2022/05/12 09:59:55;;;;;;;0.20;0.17;;;;;;;;;;5031520;28;20031;-80
2022/05/12 10:08:02;;;;;;;0.52;0.25;;;;;;;;;;5045587;28;20079;-81
2022/05/12 10:10:30;;;;;;;1.48;0.95;;;;;;;;;;5042836;28;20025;-79
2022/05/12 10:13:05;;;;;;;0.13;0.13;;;;;;;;;;5046804;28;20427;-80
2022/05/12 10:15:32;;;;;;;0.10;0.10;;;;;;;;;;5049036;28;20429;-81
2022/05/12 10:18:04;;;;;;;0.20;0.17;;;;;;;;;;5038012;28;20024;-80
2022/05/12 10:20:30;;;;;;;;;;;;;;;;;;5040092;28;20056;-81
2022/05/12 10:23:10;;;;;;;0.28;0.25;;;;;;;;;;5048507;28;19935;-80
2022/05/12 10:25:47;;;;;;;0.38;0.38;;;;;;;;;;5047298;28;20036;-80
2022/05/12 10:28:24;;;;;;;3.40;0.63;;;;;;;;;;5040562;28;20052;-78
2022/05/12 10:30:56;;;;;;;0.05;0.05;;;;;;;;;;5040881;28;20021;-81
2022/05/12 10:33:43;;;;;;;0.08;0.08;;;;;;;;;;5044361;28;20017;-80
2022/05/12 10:36:16;;;;;;;0.10;0.10;;;;;;;;;;5047846;28;20492;-80
2022/05/12 10:38:49;;;;;;;0.40;0.40;;;;;;;;;;5036611;28;20053;-80
2022/05/12 10:41:23;;;;;;;1.77;0.68;;;;;;;;;;5045836;28;20021;-81
2022/05/12 10:44:00;;;;;;;0.30;0.20;;;;;;;;;;5041379;28;20013;-81
2022/05/12 10:46:48;;;;;;;0.40;0.40;;;;;;;;;;5042420;28;20541;-80
2022/05/12 10:49:32;;;;;;;0.13;0.13;;;;;;;;;;5042654;28;20048;-80
2022/05/12 10:52:04;;;;;;;0.03;0.03;;;;;;;;;;5043557;28;20017;-80
2022/05/12 10:54:58;;;;;;;0.20;0.20;;;;;;;;;;5044957;28;20098;-80
2022/05/12 10:57:36;;;;;;;0.10;0.10;;;;;;;;;;5041700;28;20070;-80
2022/05/12 11:00:05;;;;;;;0.00;0.00;;;;;;;;;;5043548;28;20060;-80
2022/05/12 11:02:38;;;;;;;0.28;0.28;;;;;;;;;;5038613;28;20826;-80
2022/05/12 11:05:16;;;;;;;0.20;0.20;;;;;;;;;;5041114;28;20056;-80
2022/05/12 11:07:45;;;;;;;0.40;0.40;;;;;;;;;;5042701;28;20064;-80
2022/05/12 11:10:32;;;;;;;0.50;0.50;;;;;;;;;;5043478;28;20037;-80
2022/05/12 11:13:04;;;;;;;0.20;0.20;;;;;;;;;;5044393;28;20491;-80
2022/05/12 11:16:06;;;;;;;0.20;0.20;;;;;;;;;;5045169;28;20066;-80
2022/05/12 11:18:40;;;;;;;0.38;0.20;;;;;;;;;;5025776;28;20037;-81
2022/05/12 11:21:18;;;;;;;0.20;0.20;;;;;;;;;;5039548;28;20037;-80
2022/05/12 11:24:19;;;;;;;0.28;0.22;;;;;;;;;;5042856;28;20242;-79
2022/05/12 11:27:10;;;;;;;0.10;0.10;;;;;;;;;;5021788;28;20032;-80
2022/05/12 11:29:55;;;;;;;1.52;0.40;;;;;;;;;;5042585;28;20353;-81
2022/05/12 11:32:26;;;;;;;0.10;0.10;;;;;;;;;;5038458;28;20025;-80
2022/05/12 11:34:54;;;;;;;0.80;0.60;;;;;;;;;;5040545;28;20086;-80
2022/05/12 11:37:29;;;;;;;7.13;0.70;;;;;;;;;;5043004;28;20035;-80
2022/05/12 11:39:57;;;;;;;0.20;0.20;;;;;;;;;;5036508;28;20074;-80
2022/05/12 11:42:25;;;;;;;0.28;0.28;;;;;;;;;;5048944;28;20036;-80
2022/05/12 11:44:54;;;;;;;0.32;0.32;;;;;;;;;;5048387;28;20036;-80
2022/05/12 11:47:43;;;;;;;0.20;0.20;;;;;;;;;;5046784;28;20086;-81
2022/05/12 11:50:21;;;;;;;0.90;0.47;;;;;;;;;;5043692;28;20033;-80
2022/05/12 11:53:06;;;;;;;0.10;0.10;;;;;;;;;;5038564;28;20040;-80
2022/05/12 11:55:35;;;;;;;0.88;0.40;;;;;;;;;;5042334;28;20043;-80
2022/05/12 11:58:09;;;;;;;0.40;0.40;;;;;;;;;;5031958;28;20056;-80
2022/05/12 12:00:35;;;;;;;0.43;0.28;;;;;;;;;;5036426;28;20035;-80
2022/05/12 12:03:27;;;;;;;0.20;0.20;;;;;;;;;;5037028;28;20029;-80
2022/05/12 12:05:53;;;;;;;0.10;0.10;;;;;;;;;;5017803;28;20094;-80
2022/05/12 12:08:31;;;;;;;0.20;0.20;;;;;;;;;;5043442;28;20029;-79
2022/05/12 12:11:17;;;;;;;1.60;0.55;;;;;;;;;;5044159;28;20036;-80
2022/05/12 12:13:44;;;;;;;1.35;0.40;;;;;;;;;;5037236;28;20142;-81
2022/05/12 12:16:15;;;;;;;0.40;0.40;;;;;;;;;;5038290;28;20057;-79
2022/05/12 12:18:41;;;;;;;0.57;0.55;;;;;;;;;;5042607;28;20452;-80
2022/05/12 12:21:25;;;;;;;0.30;0.30;;;;;;;;;;5040703;28;20026;-80
2022/05/12 12:24:03;;;;;;;0.20;0.20;;;;;;;;;;5048350;28;20162;-80
2022/05/12 12:26:36;;;;;;;3.20;0.50;;;;;;;;;;5046406;28;20027;-81
2022/05/12 12:29:15;;;;;;;0.32;0.32;;;;;;;;;;5050290;28;20428;-78
2022/05/12 12:31:46;;;;;;;0.20;0.20;;;;;;;;;;5037767;28;20017;-78
2022/05/12 12:34:22;;;;;;;0.75;0.35;;;;;;;;;;5041427;28;20060;-79
2022/05/12 12:36:51;;;;;;;0.60;0.30;;;;;;;;;;5044961;28;20488;-78
2022/05/12 12:39:35;;;;;;;0.30;0.30;;;;;;;;;;5035656;28;20032;-79
2022/05/12 12:42:07;;;;;;;0.60;0.50;;;;;;;;;;5039915;28;20017;-78
2022/05/12 12:44:33;;;;;;;0.10;0.10;;;;;;;;;;5035389;28;20494;-77
2022/05/12 12:47:04;;;;;;;2.38;0.55;;;;;;;;;;5039482;28;20037;-79
2022/05/12 12:49:30;;;;;;;;;;;;;;;;;;5043377;28;20067;-77
2022/05/12 12:52:05;;;;;;;9.38;0.73;;;;;;;;;;5048239;28;19947;-77
2022/05/12 12:57:23;;;;;;;0.75;0.65;;;;;;;;;;5050092;28;20040;-79
2022/05/12 12:59:51;;;;;;;5.03;0.55;;;;;;;;;;5045484;28;20546;-79
2022/05/12 13:02:40;;;;;;;0.10;0.10;;;;;;;;;;5047455;28;20523;-80
2022/05/12 13:05:08;;;;;;;0.20;0.20;;;;;;;;;;5048262;28;20056;-77
2022/05/12 13:07:35;;;;;;;0.22;0.22;;;;;;;;;;5045312;28;20017;-77
2022/05/12 13:10:04;;;;;;;0.10;0.10;;;;;;;;;;5056448;28;20040;-79
2022/05/12 13:12:31;;;;;;;1.02;0.82;;;;;;;;;;5046318;28;20108;-79
2022/05/12 13:15:00;;;;;;;0.20;0.20;;;;;;;;;;5040135;28;20029;-79
2022/05/12 13:17:34;;;;;;;0.32;0.32;;;;;;;;;;5046586;28;20112;-80
2022/05/12 13:20:00;;;;;;;0.20;0.20;;;;;;;;;;5045060;28;20075;-78
2022/05/12 13:22:28;;;;;;;0.15;0.15;;;;;;;;;;5038480;28;20467;-77
2022/05/12 13:24:55;;;;;;;0.20;0.20;;;;;;;;;;5050015;28;20075;-78
2022/05/12 13:27:24;;;;;;;0.35;0.30;;;;;;;;;;5041620;28;20111;-77
2022/05/12 13:29:50;;;;;;;0.40;0.38;;;;;;;;;;5049239;28;20476;-78
2022/05/12 13:32:31;;;;;;;0.32;0.32;;;;;;;;;;5050388;28;20021;-78
2022/05/12 13:34:58;;;;;;;1.00;0.52;;;;;;;;;;5043054;28;20050;-79
2022/05/12 13:37:28;;;;;;;0.22;0.22;;;;;;;;;;5040054;28;20480;-79
2022/05/12 13:39:54;;;;;;;0.30;0.10;;;;;;;;;;5046151;28;20024;-79
2022/05/12 13:42:29;;;;;;;0.55;0.40;;;;;;;;;;5048944;28;20029;-79
2022/05/12 13:44:56;;;;;;;0.43;0.40;;;;;;;;;;5046678;28;20036;-79
2022/05/12 13:47:28;;;;;;;0.85;0.30;;;;;;;;;;5047926;28;20105;-79
2022/05/12 13:49:54;;;;;;;0.40;0.32;;;;;;;;;;5037676;28;20384;-80
2022/05/12 13:52:24;;;;;;;0.32;0.32;;;;;;;;;;5041772;28;20037;-79
2022/05/12 13:54:58;;;;;;;0.30;0.30;;;;;;;;;;5046562;28;20021;-78
2022/05/12 13:57:36;;;;;;;0.45;0.20;;;;;;;;;;5034250;28;20033;-81
2022/05/12 14:00:05;;;;;;;0.32;0.20;;;;;;;;;;5035069;28;20075;-82
2022/05/12 14:02:36;;;;;;;0.20;0.20;;;;;;;;;;5033549;28;20025;-80
2022/05/12 14:05:04;;;;;;;1.57;0.90;;;;;;;;;;5048650;28;20075;-80
2022/05/12 14:07:31;;;;;;;0.20;0.20;;;;;;;;;;5041183;28;20268;-82
2022/05/12 14:09:58;;;;;;;0.32;0.20;;;;;;;;;;5048577;28;20037;-82
2022/05/12 14:12:26;;;;;;;0.60;0.43;;;;;;;;;;5047416;28;20111;-80
2022/05/12 14:20:28;;;;;;;0.10;0.10;;;;;;;;;;5039913;28;20055;-79
2022/05/12 14:22:54;;;;;;;0.47;0.30;;;;;;;;;;5045295;28;20025;-79
2022/05/12 14:25:23;;;;;;;0.10;0.10;;;;;;;;;;5044317;28;20438;-76
2022/05/12 14:27:49;;;;;;;0.10;0.10;;;;;;;;;;5045388;28;20052;-77
2022/05/12 14:30:15;;;;;;;0.43;0.43;;;;;;;;;;5043262;28;20052;-78
2022/05/12 14:32:43;;;;;;;0.10;0.10;;;;;;;;;;5045320;28;20032;-79
2022/05/12 14:35:10;;;;;;;0.10;0.10;;;;;;;;;;5045095;28;20029;-79
2022/05/12 14:37:36;;;;;;;0.08;0.08;;;;;;;;;;5039978;28;20194;-79
2022/05/12 14:40:03;;;;;;;0.20;0.20;;;;;;;;;;5046319;28;20036;-79
2022/05/12 14:42:29;;;;;;;0.38;0.20;;;;;;;;;;5045032;28;20100;-80
2022/05/12 14:44:55;;;;;;;0.10;0.10;;;;;;;;;;5040089;28;20128;-80
2022/05/12 14:47:23;;;;;;;0.10;0.10;;;;;;;;;;5041396;28;20036;-79
2022/05/12 14:49:49;;;;;;;0.30;0.30;;;;;;;;;;5050293;28;20052;-79
2022/05/12 14:52:25;;;;;;;0.10;0.10;;;;;;;;;;5050448;28;20448;-79
2022/05/12 14:54:51;;;;;;;0.10;0.10;;;;;;;;;;5049998;28;20112;-79
2022/05/12 14:57:18;;;;;;;0.30;0.30;;;;;;;;;;5047124;28;20044;-79
2022/05/12 14:59:44;;;;;;;0.20;0.20;;;;;;;;;;5038463;28;20454;-78
2022/05/12 15:02:13;;;;;;;0.40;0.20;;;;;;;;;;5044339;28;20060;-78
2022/05/12 15:04:39;;;;;;;0.40;0.40;;;;;;;;;;5047236;28;20557;-78
2022/05/12 15:07:06;;;;;;;0.22;0.10;;;;;;;;;;5049423;28;20695;-79
2022/05/12 15:09:32;;;;;;;0.30;0.30;;;;;;;;;;5046608;28;20029;-79
2022/05/12 15:11:58;;;;;;;0.22;0.22;;;;;;;;;;5046164;28;20091;-78
2022/05/12 15:14:24;;;;;;;0.30;0.30;;;;;;;;;;5046620;28;20037;-80
2022/05/12 15:16:50;;;;;;;0.20;0.20;;;;;;;;;;5038587;28;20131;-78
2022/05/12 15:19:16;;;;;;;0.10;0.10;;;;;;;;;;5037456;28;20025;-78